createdAt,value
2024-03-06T00:01:49.888Z,26.50
2024-03-06T00:04:18.824Z,28.43
2024-03-06T00:06:47.107Z,34.87
2024-03-06T00:09:13.562Z,30.23
2024-03-06T00:11:40.525Z,25.80
2024-03-06T00:14:06.871Z,31.03
2024-03-06T00:16:33.643Z,25.80
2024-03-06T00:19:00.010Z,30.63
2024-03-06T00:21:26.292Z,30.43
2024-03-06T00:23:53.267Z,25.70
2024-03-06T00:26:19.590Z,26.17
2024-03-06T00:28:46.030Z,31.20
2024-03-06T00:31:12.304Z,28.27
2024-03-06T00:33:38.719Z,26.47
2024-03-06T00:36:05.953Z,27.03
2024-03-06T00:38:32.329Z,26.70
2024-03-06T00:40:59.379Z,29.37
2024-03-06T00:43:25.793Z,26.87
2024-03-06T00:45:52.021Z,27.07
2024-03-06T00:48:20.144Z,27.90
2024-03-06T00:50:46.422Z,23.10
2024-03-06T00:53:12.770Z,25.30
2024-03-06T00:55:39.216Z,32.47
2024-03-06T00:58:06.987Z,27.30
2024-03-06T01:00:34.708Z,24.40
2024-03-06T01:03:01.211Z,25.80
2024-03-06T01:05:27.868Z,22.73
2024-03-06T01:07:55.085Z,24.47
2024-03-06T01:10:21.529Z,23.97
2024-03-06T01:12:47.717Z,25.47
2024-03-06T01:15:14.804Z,26.10
2024-03-06T01:17:41.336Z,30.80
2024-03-06T01:20:09.297Z,27.53
2024-03-06T01:22:35.943Z,26.10
2024-03-06T01:25:02.588Z,30.40
2024-03-06T01:27:28.909Z,28.63
2024-03-06T01:29:55.196Z,29.20
2024-03-06T01:32:22.257Z,30.63
2024-03-06T01:34:48.846Z,33.90
2024-03-06T01:37:15.822Z,30.13
2024-03-06T01:39:42.240Z,29.80
2024-03-06T01:42:08.534Z,32.53
2024-03-06T01:44:34.864Z,27.53
2024-03-06T01:47:01.157Z,31.70
2024-03-06T01:49:32.968Z,35.57
2024-03-06T01:52:07.192Z,29.77
2024-03-06T01:54:33.763Z,33.00
2024-03-06T01:57:02.702Z,32.80
2024-03-06T01:59:36.045Z,35.63
2024-03-06T02:02:03.840Z,32.23
2024-03-06T02:04:31.282Z,27.37
2024-03-06T02:06:57.802Z,29.80
2024-03-06T02:09:24.120Z,27.50
2024-03-06T02:11:51.145Z,29.40
2024-03-06T02:14:17.653Z,26.10
2024-03-06T02:16:43.933Z,29.53
2024-03-06T02:19:10.243Z,29.80
2024-03-06T02:21:37.248Z,32.77
2024-03-06T02:24:03.814Z,26.67
2024-03-06T02:26:30.139Z,31.60
2024-03-06T02:28:57.441Z,28.67
2024-03-06T02:31:23.698Z,28.37
2024-03-06T02:33:50.727Z,30.00
2024-03-06T02:36:17.609Z,29.00
2024-03-06T02:38:44.688Z,30.90
2024-03-06T02:41:11.415Z,28.40
2024-03-06T02:43:38.112Z,30.27
2024-03-06T02:46:05.095Z,29.50
2024-03-06T02:48:31.521Z,30.50
2024-03-06T02:50:58.320Z,30.57
2024-03-06T02:53:25.930Z,31.63
2024-03-06T02:55:53.250Z,29.43
2024-03-06T02:58:19.643Z,31.53
2024-03-06T03:00:45.977Z,29.07
2024-03-06T03:03:12.769Z,31.40
2024-03-06T03:05:39.346Z,29.57
2024-03-06T03:08:06.871Z,29.93
2024-03-06T03:10:35.062Z,30.40
2024-03-06T03:13:02.512Z,32.23
2024-03-06T03:15:28.903Z,29.13
2024-03-06T03:17:55.327Z,29.97
2024-03-06T03:20:21.630Z,31.00
2024-03-06T03:22:48.518Z,34.27
2024-03-06T03:25:15.472Z,32.83
2024-03-06T03:27:42.053Z,30.13
2024-03-06T03:30:10.077Z,29.60
2024-03-06T03:32:38.501Z,31.67
2024-03-06T03:35:05.928Z,34.10
2024-03-06T03:37:32.461Z,33.53
2024-03-06T03:39:58.921Z,32.80
2024-03-06T03:42:25.721Z,35.87
2024-03-06T03:44:52.962Z,34.03
2024-03-06T03:47:20.115Z,35.47
2024-03-06T03:49:53.847Z,37.00
2024-03-06T03:52:29.583Z,37.07
2024-03-06T03:54:55.965Z,33.93
2024-03-06T03:57:22.295Z,31.27
2024-03-06T03:59:48.731Z,31.97
2024-03-06T04:02:15.287Z,39.93
2024-03-06T04:04:42.400Z,32.67
2024-03-06T04:07:09.138Z,34.50
2024-03-06T04:09:36.395Z,38.10
2024-03-06T04:12:02.873Z,35.50
2024-03-06T04:14:32.085Z,36.67
2024-03-06T04:16:58.412Z,38.07
2024-03-06T04:19:24.654Z,33.00
2024-03-06T04:21:51.624Z,33.67
2024-03-06T04:24:17.997Z,33.80
2024-03-06T04:26:44.243Z,29.57
2024-03-06T04:29:10.831Z,28.50
2024-03-06T04:31:37.653Z,31.80
2024-03-06T04:34:04.009Z,33.23
2024-03-06T04:36:30.213Z,32.53
2024-03-06T04:38:57.243Z,32.17
2024-03-06T04:41:24.240Z,32.17
2024-03-06T04:43:51.053Z,30.43
2024-03-06T04:46:17.442Z,34.00
2024-03-06T04:48:45.857Z,37.40
2024-03-06T04:51:12.134Z,35.20
2024-03-06T04:53:38.323Z,37.57
2024-03-06T04:56:07.826Z,33.63
2024-03-06T04:58:34.484Z,31.53
2024-03-06T05:01:00.940Z,33.90
2024-03-06T05:58:31.713Z,36.80
2024-03-06T06:00:58.737Z,42.17
2024-03-06T06:03:25.171Z,35.43
2024-03-06T06:05:51.423Z,35.13
2024-03-06T06:08:17.705Z,40.23
2024-03-06T06:10:48.300Z,40.73
2024-03-06T06:13:15.017Z,39.07
2024-03-06T06:15:41.634Z,38.53
2024-03-06T06:18:08.676Z,40.10
2024-03-06T06:20:35.216Z,36.50
2024-03-06T06:23:01.607Z,34.50
2024-03-06T06:25:30.038Z,41.07
2024-03-06T06:27:56.361Z,36.00
2024-03-06T06:30:23.287Z,40.53
2024-03-06T06:32:49.654Z,43.67
2024-03-06T06:35:16.741Z,46.93
2024-03-06T06:37:43.162Z,39.10
2024-03-06T06:40:12.083Z,42.00
2024-03-06T06:42:38.635Z,42.73
2024-03-06T06:45:06.756Z,41.00
2024-03-06T06:47:33.055Z,44.37
2024-03-06T06:49:59.354Z,45.20
2024-03-06T06:52:27.987Z,47.77
2024-03-06T06:54:54.537Z,50.40
2024-03-06T06:57:21.282Z,40.30
2024-03-06T06:59:47.641Z,44.13
2024-03-06T07:02:13.896Z,58.87
2024-03-06T07:04:40.231Z,54.97
2024-03-06T07:07:06.680Z,51.83
2024-03-06T07:09:34.259Z,52.87
2024-03-06T07:12:00.746Z,60.23
2024-03-06T07:14:27.146Z,53.37
2024-03-06T07:16:53.636Z,56.17
2024-03-06T07:19:20.330Z,61.30
2024-03-06T07:21:46.672Z,63.00
2024-03-06T07:24:13.020Z,64.50
2024-03-06T07:26:40.050Z,58.50
2024-03-06T07:29:13.267Z,73.40
2024-03-06T07:31:39.784Z,71.60
2024-03-06T07:34:08.534Z,76.47
2024-03-06T07:36:35.529Z,69.43
2024-03-06T07:39:02.131Z,77.07
2024-03-06T07:41:28.407Z,75.90
2024-03-06T07:43:55.639Z,77.97
2024-03-06T07:46:21.868Z,77.50
2024-03-06T07:48:49.650Z,80.23
2024-03-06T07:51:15.984Z,72.57
2024-03-06T07:53:42.541Z,74.10
2024-03-06T07:56:11.699Z,74.67
2024-03-06T07:58:38.028Z,67.73
2024-03-06T08:01:05.364Z,68.80
2024-03-06T08:03:31.748Z,69.43
2024-03-06T08:05:58.043Z,65.70
2024-03-06T08:08:24.550Z,62.27
2024-03-06T08:10:51.153Z,64.03
2024-03-06T08:13:19.415Z,59.43
2024-03-06T08:15:46.335Z,61.27
2024-03-06T08:18:13.961Z,64.70
2024-03-06T08:20:40.394Z,59.83
2024-03-06T08:23:07.970Z,51.10
2024-03-06T08:25:34.328Z,58.50
2024-03-06T08:28:00.704Z,53.47
2024-03-06T08:30:27.070Z,56.00
2024-03-06T08:32:53.631Z,53.50
2024-03-06T08:35:22.195Z,49.00
2024-03-06T08:37:49.405Z,56.10
2024-03-06T08:40:16.393Z,52.37
2024-03-06T08:42:42.793Z,44.97
2024-03-06T08:45:09.419Z,53.43
2024-03-06T08:47:35.857Z,47.70
2024-03-06T08:50:02.912Z,45.37
2024-03-06T08:52:31.378Z,47.67
2024-03-06T08:54:57.702Z,45.70
2024-03-06T08:57:24.818Z,41.90
2024-03-06T08:59:53.212Z,43.17
2024-03-06T09:02:20.223Z,51.70
2024-03-06T09:04:47.153Z,42.47
2024-03-06T09:07:13.990Z,41.50
2024-03-06T09:09:41.485Z,46.57
2024-03-06T09:12:10.708Z,50.53
2024-03-06T09:14:37.446Z,48.40
2024-03-06T09:17:04.736Z,51.17
2024-03-06T09:19:31.056Z,46.00
2024-03-06T09:21:57.640Z,50.37
2024-03-06T09:24:25.339Z,47.30
2024-03-06T09:26:52.564Z,44.90
2024-03-06T09:29:19.476Z,44.33
2024-03-06T09:31:45.824Z,52.30
2024-03-06T09:34:12.856Z,50.80
2024-03-06T09:36:39.272Z,53.47
2024-03-06T09:39:05.550Z,53.63
2024-03-06T09:41:32.088Z,56.10
2024-03-06T09:44:00.785Z,59.23
2024-03-06T09:46:27.531Z,60.47
2024-03-06T09:48:54.615Z,53.03
2024-03-06T09:51:22.130Z,58.37
2024-03-06T09:53:50.240Z,53.93
2024-03-06T09:56:16.821Z,58.80
2024-03-06T09:58:43.153Z,60.37
2024-03-06T10:01:12.529Z,64.40
2024-03-06T10:03:40.824Z,60.43
2024-03-06T10:06:09.896Z,73.13
2024-03-06T10:08:42.846Z,63.60
2024-03-06T10:11:09.577Z,66.63
2024-03-06T10:13:35.935Z,63.53
2024-03-06T10:16:03.727Z,69.03
2024-03-06T10:18:32.615Z,67.47
2024-03-06T10:20:59.013Z,63.03
2024-03-06T10:23:25.582Z,68.93
2024-03-06T10:25:52.985Z,64.93
2024-03-06T10:28:20.477Z,69.03
2024-03-06T10:30:47.197Z,65.57
2024-03-06T10:33:14.393Z,67.80
2024-03-06T10:35:42.884Z,70.53
2024-03-06T10:38:10.349Z,69.00
2024-03-06T10:40:37.850Z,65.93
2024-03-06T10:43:06.312Z,69.20
2024-03-06T10:45:42.909Z,64.17
2024-03-06T10:48:11.581Z,65.47
2024-03-06T10:50:42.066Z,66.97
2024-03-06T10:53:11.007Z,65.13
2024-03-06T10:55:37.995Z,61.17
2024-03-06T10:58:08.721Z,63.07
2024-03-06T11:00:35.541Z,61.43
2024-03-06T11:03:06.817Z,56.63
2024-03-06T11:05:33.240Z,64.47
2024-03-06T11:08:00.150Z,55.43
2024-03-06T11:10:34.925Z,55.03
2024-03-06T11:13:02.432Z,57.80
2024-03-06T11:15:28.729Z,54.30
2024-03-06T11:17:55.709Z,56.80
2024-03-06T11:20:24.734Z,59.90
2024-03-06T11:23:08.902Z,49.53
2024-03-06T11:25:59.098Z,48.23
2024-03-06T11:28:27.858Z,45.73
2024-03-06T11:30:57.950Z,42.03
2024-03-06T11:33:24.485Z,48.57
2024-03-06T11:36:20.972Z,44.67
2024-03-06T11:38:56.739Z,45.53
2024-03-06T11:41:26.195Z,39.63
2024-03-06T11:43:53.676Z,40.37
2024-03-06T11:46:21.048Z,42.07
2024-03-06T11:48:54.540Z,38.67
2024-03-06T11:51:21.421Z,43.93
2024-03-06T11:53:50.916Z,42.20
2024-03-06T11:56:18.573Z,42.13
2024-03-06T11:58:49.330Z,41.30
2024-03-06T12:01:17.540Z,38.73
2024-03-06T12:03:44.161Z,38.37
2024-03-06T12:06:10.536Z,38.83
2024-03-06T12:08:37.601Z,33.07
2024-03-06T12:11:05.845Z,37.40
2024-03-06T12:13:32.308Z,34.10
2024-03-06T12:16:03.794Z,33.00
2024-03-06T12:18:31.211Z,32.50
2024-03-06T12:20:57.666Z,32.37
2024-03-06T12:23:26.411Z,34.97
2024-03-06T12:26:07.298Z,26.57
2024-03-06T12:28:33.823Z,28.70
2024-03-06T12:31:03.136Z,28.53
2024-03-06T12:33:29.675Z,26.67
2024-03-06T12:36:03.553Z,30.07
2024-03-06T12:38:30.429Z,23.83
2024-03-06T12:40:56.714Z,18.17
2024-03-06T12:43:23.548Z,24.33
2024-03-06T12:45:49.984Z,19.47
2024-03-06T12:48:16.972Z,19.70
2024-03-06T12:50:43.364Z,24.80
2024-03-06T12:53:09.654Z,22.37
2024-03-06T12:55:36.091Z,27.03
2024-03-06T12:58:03.020Z,26.80
2024-03-06T13:00:29.559Z,26.83
2024-03-06T13:02:56.336Z,24.03
2024-03-06T13:05:23.418Z,23.47
2024-03-06T13:07:49.770Z,28.30
2024-03-06T13:10:16.385Z,19.10
2024-03-06T13:12:42.995Z,21.23
2024-03-06T13:15:09.722Z,21.30
2024-03-06T13:17:36.376Z,18.40
2024-03-06T13:20:03.128Z,19.67
2024-03-06T13:22:30.148Z,18.60
2024-03-06T13:24:57.560Z,21.47
2024-03-06T13:27:23.882Z,18.97
2024-03-06T13:29:51.440Z,17.57
2024-03-06T13:32:17.951Z,15.37
2024-03-06T13:34:44.615Z,14.63
2024-03-06T13:37:10.878Z,16.13
2024-03-06T13:39:39.317Z,19.50
2024-03-06T13:42:06.597Z,20.97
2024-03-06T13:44:33.098Z,20.53
2024-03-06T13:46:59.390Z,16.50
2024-03-06T13:49:43.827Z,19.20
2024-03-06T13:52:10.874Z,16.03
2024-03-06T13:54:39.481Z,14.80
2024-03-06T13:57:06.166Z,11.70
2024-03-06T13:59:33.098Z,11.70
2024-03-06T14:02:00.107Z,12.83
2024-03-06T14:04:26.872Z,13.87
2024-03-06T14:06:53.412Z,13.67
2024-03-06T14:09:19.631Z,12.43
2024-03-06T14:11:46.617Z,8.97
2024-03-06T14:14:12.977Z,11.70
2024-03-06T14:16:40.707Z,12.90
2024-03-06T14:19:07.298Z,11.93
2024-03-06T14:21:33.590Z,11.50
2024-03-06T14:24:04.117Z,12.47
2024-03-06T14:26:30.436Z,12.90
2024-03-06T14:28:57.566Z,25.33
2024-03-06T14:31:23.944Z,30.43
2024-03-06T14:33:50.854Z,29.17
2024-03-06T14:36:17.240Z,31.77
2024-03-06T14:38:44.577Z,32.80
2024-03-06T14:41:10.920Z,29.97
2024-03-06T14:43:38.783Z,32.30
2024-03-06T14:46:06.091Z,28.33
2024-03-06T14:48:32.416Z,29.47
2024-03-06T14:51:01.761Z,29.80
2024-03-06T14:53:28.042Z,30.70
2024-03-06T14:55:54.320Z,30.40
2024-03-06T14:58:20.986Z,31.70
2024-03-06T15:00:47.515Z,32.53
2024-03-06T15:03:14.470Z,30.93
2024-03-06T15:05:40.973Z,32.50
2024-03-06T15:08:09.119Z,28.60
2024-03-06T15:10:35.411Z,33.90
2024-03-06T15:13:01.748Z,28.77
2024-03-06T15:15:28.029Z,31.33
2024-03-06T15:17:54.514Z,26.33
2024-03-06T15:20:21.677Z,26.83
2024-03-06T15:22:47.958Z,27.37
2024-03-06T15:25:14.603Z,23.47
2024-03-06T15:27:41.742Z,22.67
2024-03-06T15:30:09.343Z,26.37
2024-03-06T15:32:36.051Z,22.27
2024-03-06T15:35:03.804Z,25.77
2024-03-06T15:37:30.862Z,25.13
2024-03-06T15:39:57.343Z,23.53
2024-03-06T15:42:24.707Z,24.57
2024-03-06T15:44:51.609Z,23.07
2024-03-06T15:47:19.334Z,25.37
2024-03-06T15:49:46.176Z,22.87
2024-03-06T15:52:14.068Z,28.13
2024-03-06T15:54:41.068Z,26.87
2024-03-06T15:57:07.605Z,28.47
2024-03-06T15:59:34.169Z,30.27
2024-03-06T16:02:00.733Z,30.20
2024-03-06T16:04:27.154Z,28.40
2024-03-06T16:06:53.410Z,33.17
2024-03-06T16:09:19.808Z,27.27
2024-03-06T16:11:47.047Z,33.87
2024-03-06T16:14:13.487Z,29.60
2024-03-06T16:16:40.536Z,27.47
2024-03-06T16:19:06.944Z,30.07
2024-03-06T16:21:37.392Z,29.10
2024-03-06T16:24:06.361Z,29.20
2024-03-06T16:26:34.375Z,31.57
2024-03-06T16:29:01.725Z,29.27
2024-03-06T16:31:28.101Z,33.10
2024-03-06T16:33:54.553Z,33.30
2024-03-06T16:36:21.035Z,38.93
2024-03-06T16:38:47.840Z,36.90
2024-03-06T16:41:14.346Z,39.50
2024-03-06T16:43:40.843Z,35.37
2024-03-06T16:46:08.045Z,35.23
2024-03-06T16:48:35.128Z,43.83
2024-03-06T16:51:01.386Z,38.53
2024-03-06T16:53:27.719Z,37.43
2024-03-06T16:55:54.113Z,39.40
2024-03-06T16:58:21.499Z,35.67
2024-03-06T17:00:48.244Z,41.33
2024-03-06T17:03:15.374Z,43.30
2024-03-06T17:05:41.720Z,40.60
2024-03-06T17:08:08.177Z,38.63
2024-03-06T17:10:34.719Z,42.13
2024-03-06T17:13:01.615Z,40.60
2024-03-06T17:15:27.938Z,43.13
2024-03-06T17:17:54.856Z,41.33
2024-03-06T17:20:21.859Z,41.43
2024-03-06T17:22:48.285Z,41.43
2024-03-06T17:25:15.091Z,38.50
2024-03-06T17:27:41.750Z,39.70
2024-03-06T17:30:09.064Z,44.67
2024-03-06T17:32:35.359Z,46.13
2024-03-06T17:35:04.056Z,45.90
2024-03-06T17:37:30.971Z,44.73
2024-03-06T17:39:57.297Z,42.80
2024-03-06T17:42:23.565Z,47.73
2024-03-06T17:44:50.581Z,44.67
2024-03-06T17:47:17.009Z,45.60
2024-03-06T17:49:44.022Z,42.10
2024-03-06T17:52:10.222Z,47.37
2024-03-06T17:54:37.448Z,45.77
2024-03-06T17:57:04.493Z,59.90
2024-03-06T17:59:31.203Z,50.40
2024-03-06T18:01:57.777Z,52.03
2024-03-06T18:04:24.681Z,68.10
2024-03-06T18:06:51.033Z,53.67
2024-03-06T18:09:19.107Z,49.27
2024-03-06T18:11:46.165Z,38.97
2024-03-06T18:14:12.774Z,43.43
2024-03-06T18:16:39.161Z,36.33
2024-03-06T18:19:06.040Z,38.30
2024-03-06T18:21:32.573Z,38.13
2024-03-06T18:23:59.287Z,41.20
2024-03-06T18:26:25.665Z,37.37
2024-03-06T18:28:52.697Z,37.73
2024-03-06T18:31:19.023Z,38.20
2024-03-06T18:33:45.456Z,36.67
2024-03-06T18:36:11.944Z,36.50
2024-03-06T18:38:38.290Z,38.93
2024-03-06T18:41:05.013Z,39.10
2024-03-06T18:43:31.345Z,36.33
2024-03-06T18:45:58.238Z,37.90
2024-03-06T18:48:26.868Z,40.00
2024-03-06T18:50:53.617Z,39.30
2024-03-06T18:53:20.445Z,39.80
2024-03-06T18:55:46.740Z,37.60
2024-03-06T18:58:13.104Z,36.83
2024-03-06T19:00:39.370Z,38.00
2024-03-06T19:03:06.471Z,36.67
2024-03-06T19:05:32.981Z,36.97
2024-03-06T19:07:59.282Z,39.17
2024-03-06T19:10:25.808Z,36.30
2024-03-06T19:12:52.115Z,36.40
2024-03-06T19:15:19.438Z,39.33
2024-03-06T19:17:45.864Z,41.93
2024-03-06T19:20:13.388Z,38.03
2024-03-06T19:22:48.261Z,41.57
2024-03-06T19:25:18.729Z,36.77
2024-03-06T19:27:51.692Z,39.77
2024-03-06T19:30:18.011Z,39.53
2024-03-06T19:32:54.987Z,35.97
2024-03-06T19:35:28.086Z,38.40
2024-03-06T19:38:00.020Z,40.77
2024-03-06T19:40:28.832Z,41.47
2024-03-06T19:42:55.406Z,40.17
2024-03-06T19:45:22.111Z,39.17
2024-03-06T19:47:48.839Z,41.90
2024-03-06T19:50:20.770Z,38.13
2024-03-06T19:52:55.060Z,42.43
2024-03-06T19:55:27.743Z,39.03
2024-03-06T19:57:56.054Z,39.10
2024-03-06T20:00:22.475Z,42.37
2024-03-06T20:02:49.714Z,44.87
2024-03-06T20:05:16.580Z,42.83
2024-03-06T20:07:46.370Z,41.20
2024-03-06T20:10:15.405Z,41.67
2024-03-06T20:12:42.861Z,42.53
2024-03-06T20:15:09.878Z,43.77
2024-03-06T20:17:37.492Z,43.63
2024-03-06T20:20:04.772Z,52.67
2024-03-06T20:22:34.114Z,44.73
2024-03-06T20:25:04.901Z,45.60
2024-03-06T20:27:40.423Z,49.30
2024-03-06T20:30:15.675Z,48.10
2024-03-06T20:32:44.857Z,48.87
2024-03-06T20:35:14.248Z,49.40
2024-03-06T20:37:47.191Z,47.70
2024-03-06T20:40:13.759Z,53.47
2024-03-06T20:42:41.008Z,50.50
2024-03-06T20:45:10.962Z,54.63
2024-03-06T20:47:37.746Z,54.73
2024-03-06T20:50:05.044Z,56.13
2024-03-06T20:52:31.507Z,60.47
2024-03-06T20:54:57.848Z,55.37
2024-03-06T20:57:28.503Z,59.60
2024-03-06T20:59:55.697Z,59.37
2024-03-06T21:02:22.787Z,51.50
2024-03-06T21:04:49.085Z,54.60
2024-03-06T21:07:15.501Z,56.43
2024-03-06T21:09:42.374Z,56.17
2024-03-06T21:12:10.412Z,56.80
2024-03-06T21:14:38.124Z,60.60
2024-03-06T21:17:10.367Z,57.13
2024-03-06T21:19:39.005Z,57.30
2024-03-06T21:22:06.374Z,62.07
2024-03-06T21:24:33.011Z,63.73
2024-03-06T21:27:02.574Z,61.57
2024-03-06T21:29:30.104Z,54.53
2024-03-06T21:31:56.455Z,57.43
2024-03-06T21:34:23.361Z,58.57
2024-03-06T21:36:49.961Z,59.47
2024-03-06T21:39:16.500Z,58.63
2024-03-06T21:41:43.750Z,66.40
2024-03-06T21:44:10.299Z,56.83
2024-03-06T21:46:36.796Z,61.43
2024-03-06T21:49:03.202Z,61.33
2024-03-06T21:51:30.641Z,67.83
2024-03-06T21:53:57.092Z,65.77
2024-03-06T21:56:24.070Z,71.43
2024-03-06T21:58:51.835Z,61.60
2024-03-06T22:01:18.395Z,68.93
2024-03-06T22:03:44.760Z,63.43
2024-03-06T22:06:11.062Z,76.50
2024-03-06T22:08:38.478Z,66.73
2024-03-06T22:11:05.214Z,64.90
2024-03-06T22:13:32.741Z,74.57
2024-03-06T22:15:59.968Z,67.43
2024-03-06T22:18:26.347Z,64.70
2024-03-06T22:20:52.960Z,62.00
2024-03-06T22:23:19.366Z,67.87
2024-03-06T22:25:46.633Z,70.50
2024-03-06T22:28:13.751Z,61.60
2024-03-06T22:30:41.552Z,61.67
2024-03-06T22:33:08.129Z,66.73
2024-03-06T22:35:34.595Z,61.83
2024-03-06T22:38:01.593Z,60.37
2024-03-06T22:40:30.033Z,54.67
2024-03-06T22:42:57.067Z,57.57
2024-03-06T22:45:24.643Z,67.20
2024-03-06T22:47:51.176Z,60.63
2024-03-06T22:50:17.751Z,63.10
2024-03-06T22:52:44.002Z,61.73
2024-03-06T22:55:10.266Z,63.80
2024-03-06T22:57:36.457Z,58.30
2024-03-06T23:00:07.976Z,58.50
2024-03-06T23:02:34.297Z,60.00
2024-03-06T23:05:00.652Z,60.53
2024-03-06T23:07:26.895Z,53.17
2024-03-06T23:09:53.084Z,57.97
2024-03-06T23:12:19.913Z,60.50
2024-03-06T23:14:46.292Z,61.87
2024-03-06T23:17:13.243Z,62.83
2024-03-06T23:19:39.701Z,62.10
2024-03-06T23:22:05.965Z,64.67
2024-03-06T23:24:32.357Z,71.07
2024-03-06T23:26:58.873Z,63.93
2024-03-06T23:29:25.195Z,75.00
2024-03-06T23:31:51.433Z,61.93
2024-03-06T23:34:18.394Z,74.43
2024-03-06T23:36:44.577Z,73.50
2024-03-06T23:39:11.056Z,68.93
2024-03-06T23:41:37.927Z,70.47
2024-03-06T23:44:04.591Z,66.10
2024-03-06T23:46:31.875Z,76.63
2024-03-06T23:48:58.429Z,77.63
2024-03-06T23:51:25.339Z,67.00
2024-03-06T23:53:51.824Z,67.17
2024-03-06T23:56:18.391Z,75.13
2024-03-06T23:58:44.651Z,69.43
